createdAt,value
2023-10-02T00:01:24.179Z,39.3
2023-10-02T00:11:30.126Z,38.6
2023-10-02T00:21:36.869Z,37.5
2023-10-02T00:31:43.656Z,42
2023-10-02T00:41:50.449Z,41.1
2023-10-02T00:51:57.244Z,43.7
2023-10-02T01:02:04.034Z,41.2
2023-10-02T01:12:10.881Z,39.9
2023-10-02T01:22:17.631Z,42.6
2023-10-02T01:32:24.457Z,44.3
2023-10-02T01:42:31.339Z,43.7
2023-10-02T01:52:38.155Z,45.5
2023-10-02T02:02:45.008Z,44
2023-10-02T02:12:51.921Z,45
2023-10-02T02:22:58.835Z,46.1
2023-10-02T02:33:05.792Z,45
2023-10-02T02:43:12.724Z,47.8
2023-10-02T02:53:19.617Z,47.2
2023-10-02T03:03:26.478Z,45
2023-10-02T03:13:33.348Z,44.3
2023-10-02T03:23:40.230Z,41.6
2023-10-02T03:33:46.249Z,44.1
2023-10-02T03:43:53.149Z,41.8
2023-10-02T03:54:00.057Z,50
2023-10-02T04:04:06.871Z,38.2
2023-10-02T04:14:13.788Z,43.3
2023-10-02T04:24:20.720Z,43.8
2023-10-02T04:34:27.625Z,42
2023-10-02T04:44:34.540Z,44.7
2023-10-02T04:54:41.402Z,41.1
2023-10-02T05:04:48.311Z,42.2
2023-10-02T05:14:55.273Z,41
2023-10-02T05:25:02.230Z,40.6
2023-10-02T05:35:09.221Z,43.7
2023-10-02T05:45:16.178Z,38.8
2023-10-02T05:55:23.143Z,40.7
2023-10-02T06:05:30.172Z,46.1
2023-10-02T06:15:37.065Z,42.8
2023-10-02T06:25:43.879Z,42.4
2023-10-02T06:35:50.811Z,47
2023-10-02T06:45:57.887Z,53.2
2023-10-02T06:56:04.702Z,49
2023-10-02T07:06:11.631Z,49.7
2023-10-02T07:16:18.569Z,46.9
2023-10-02T07:26:24.638Z,42.6
2023-10-02T07:36:31.422Z,41.3
2023-10-02T07:46:38.266Z,52.1
2023-10-02T07:56:45.099Z,40.2
2023-10-02T08:06:51.862Z,44.2
2023-10-02T08:16:58.559Z,44.7
2023-10-02T08:27:05.177Z,43.7
2023-10-02T08:37:11.840Z,42.8
2023-10-02T08:47:18.489Z,60.8
2023-10-02T08:57:25.132Z,48.2
2023-10-02T09:07:31.769Z,43.6
2023-10-02T09:17:38.412Z,38.5
2023-10-02T09:27:44.934Z,45.3
2023-10-02T09:37:51.484Z,43.5
2023-10-02T09:47:58.059Z,46.3
2023-10-02T09:58:04.586Z,46.7
2023-10-02T10:08:11.044Z,44.9
2023-10-02T10:18:17.580Z,48
2023-10-02T10:28:23.888Z,47.8
2023-10-02T10:38:30.363Z,41.6
2023-10-02T10:48:36.617Z,43.9
2023-10-02T10:58:43.031Z,49.6
2023-10-02T11:08:49.287Z,40.6
2023-10-02T11:18:55.572Z,43.4
2023-10-02T11:29:01.883Z,47.5
2023-10-02T11:39:08.145Z,48.2
2023-10-02T11:49:14.208Z,40.1
2023-10-02T11:59:20.398Z,40.4
2023-10-02T12:09:26.587Z,45.9
2023-10-02T12:19:32.756Z,43.7
2023-10-02T12:29:39.173Z,48.1
2023-10-02T12:39:44.518Z,46
2023-10-02T12:49:50.874Z,45.8
2023-10-02T12:59:56.860Z,51.6
2023-10-02T13:10:03.062Z,47.1
2023-10-02T13:20:09.271Z,58.6
2023-10-02T13:30:15.473Z,46.7
2023-10-02T13:40:21.613Z,47
2023-10-02T13:50:27.856Z,56.1
2023-10-02T14:00:34.038Z,57.1
2023-10-02T14:10:40.351Z,53.9
2023-10-02T14:20:46.486Z,49.2
2023-10-02T14:30:52.695Z,45.9
2023-10-02T14:40:58.923Z,46.5
2023-10-02T14:51:04.275Z,50.9
2023-10-02T15:01:10.472Z,47.1
2023-10-02T15:11:16.915Z,49.4
2023-10-02T15:21:22.912Z,50.1
2023-10-02T15:31:29.085Z,50.2
2023-10-02T15:41:35.301Z,45.1
2023-10-02T15:51:41.455Z,56.4
2023-10-02T16:01:47.627Z,48.6
2023-10-02T16:11:53.802Z,57.6
2023-10-02T16:21:59.994Z,51.2
2023-10-02T16:32:06.225Z,51.9
2023-10-02T16:42:12.504Z,56.4
2023-10-02T16:52:18.696Z,54.9
2023-10-02T17:02:24.940Z,55.9
2023-10-02T17:12:31.182Z,57.4
2023-10-02T17:22:37.474Z,57.2
2023-10-02T17:32:43.729Z,61.3
2023-10-02T17:42:50.005Z,57.2
2023-10-02T17:52:56.284Z,62
2023-10-02T18:03:02.624Z,64
2023-10-02T18:13:08.884Z,59.8
2023-10-02T18:23:15.254Z,63.7
2023-10-02T18:33:21.676Z,65.7
2023-10-02T18:43:28.109Z,71
2023-10-02T18:53:34.556Z,61.7
2023-10-02T19:03:41.008Z,58.5
2023-10-02T19:13:47.460Z,59.7
2023-10-02T19:23:53.910Z,58.7
2023-10-02T19:34:00.428Z,62.2
2023-10-02T19:44:06.998Z,59.8
2023-10-02T19:54:13.332Z,69.6
2023-10-02T20:04:19.863Z,65.7
2023-10-02T20:14:26.423Z,57.3
2023-10-02T20:24:33.037Z,65.4
2023-10-02T20:34:39.614Z,68.7
2023-10-02T20:44:46.266Z,66.2
2023-10-02T20:54:52.890Z,71.9
2023-10-02T21:04:59.801Z,70.2
2023-10-02T21:15:06.664Z,70.3
2023-10-02T21:25:13.634Z,64.1
2023-10-02T21:35:20.450Z,63.3
2023-10-02T21:45:27.337Z,57.7
2023-10-02T21:55:34.232Z,54.7
2023-10-02T22:05:41.232Z,51.9
2023-10-02T22:15:48.173Z,52.1
2023-10-02T22:25:55.126Z,50.7
2023-10-02T22:36:02.039Z,46
2023-10-02T22:46:08.976Z,50
2023-10-02T22:56:15.936Z,47.2
2023-10-02T23:06:22.938Z,47.2
2023-10-02T23:16:30.568Z,43.1
2023-10-02T23:26:37.901Z,46.3
2023-10-02T23:36:45.579Z,46.3
2023-10-02T23:46:53.244Z,48.2
2023-10-02T23:57:00.918Z,45.7
